createdAt,value
2018-04-18T00:00:06.163Z,99.99
2018-04-18T00:01:06.222Z,99.99
2018-04-18T00:02:06.370Z,99.99
2018-04-18T00:03:06.332Z,99.99
2018-04-18T00:04:06.249Z,99.99
2018-04-18T00:05:06.086Z,99.85
2018-04-18T00:06:06.003Z,99.65
2018-04-18T00:07:06.157Z,99.99
2018-04-18T00:08:05.989Z,99.99
2018-04-18T00:09:06.038Z,99.99
2018-04-18T00:10:05.986Z,99.99
2018-04-18T00:11:05.937Z,99.99
2018-04-18T00:12:05.939Z,99.85
2018-04-18T00:13:05.899Z,99.99
2018-04-18T00:14:05.937Z,99.56
2018-04-18T00:15:05.808Z,99.17
2018-04-18T00:16:05.757Z,99.07
2018-04-18T00:17:05.942Z,99.65
2018-04-18T00:18:05.829Z,99.99
2018-04-18T00:19:05.867Z,99.99
2018-04-18T00:20:05.669Z,99.22
2018-04-18T00:21:05.671Z,99.22
2018-04-18T00:22:05.670Z,99.80
2018-04-18T00:23:05.655Z,99.41
2018-04-18T00:24:05.703Z,99.90
2018-04-18T00:25:05.682Z,99.12
2018-04-18T00:26:05.599Z,99.12
2018-04-18T00:27:05.523Z,98.83
2018-04-18T00:28:05.491Z,99.22
2018-04-18T00:29:05.564Z,99.60
2018-04-18T00:30:05.541Z,99.99
2018-04-18T00:31:05.420Z,99.41
2018-04-18T00:32:05.401Z,99.51
2018-04-18T00:33:05.379Z,99.22
2018-04-18T00:34:05.390Z,99.51
2018-04-18T00:35:05.415Z,99.22
2018-04-18T00:36:05.294Z,98.78
2018-04-18T00:37:06.028Z,98.83
2018-04-18T00:38:05.272Z,98.00
2018-04-18T00:39:05.242Z,98.05
2018-04-18T00:40:05.204Z,97.76
2018-04-18T00:41:05.312Z,97.76
2018-04-18T00:42:05.163Z,97.66
2018-04-18T00:43:05.195Z,98.15
2018-04-18T00:44:05.215Z,97.96
2018-04-18T00:45:05.125Z,98.15
2018-04-18T00:46:05.156Z,98.25
2018-04-18T00:47:05.060Z,97.66
2018-04-18T00:48:05.029Z,97.76
2018-04-18T00:49:04.993Z,98.15
2018-04-18T00:50:04.975Z,97.52
2018-04-18T00:51:04.979Z,98.20
2018-04-18T00:52:04.989Z,98.20
2018-04-18T00:53:04.925Z,98.00
2018-04-18T00:54:04.876Z,97.42
2018-04-18T00:55:04.902Z,97.61
2018-04-18T00:56:05.159Z,97.52
2018-04-18T00:57:05.416Z,97.32
2018-04-18T00:58:04.749Z,96.84
2018-04-18T00:59:04.759Z,96.74
2018-04-18T01:00:04.749Z,97.52
2018-04-18T01:01:04.824Z,97.42
2018-04-18T01:02:04.688Z,97.52
2018-04-18T01:03:05.219Z,97.71
2018-04-18T01:04:04.629Z,97.13
2018-04-18T01:05:04.600Z,97.13
2018-04-18T01:06:04.689Z,97.03
2018-04-18T01:07:04.549Z,97.42
2018-04-18T01:08:04.521Z,96.94
2018-04-18T01:09:04.516Z,96.84
2018-04-18T01:10:04.481Z,96.84
2018-04-18T01:11:04.484Z,97.52
2018-04-18T01:12:04.564Z,97.61
2018-04-18T01:13:04.433Z,97.22
2018-04-18T01:14:04.431Z,98.00
2018-04-18T01:15:04.421Z,97.22
2018-04-18T01:16:04.500Z,96.94
2018-04-18T01:17:04.369Z,96.84
2018-04-18T01:18:04.326Z,96.15
2018-04-18T01:19:04.279Z,96.74
2018-04-18T01:20:04.224Z,96.74
2018-04-18T01:21:04.195Z,96.35
2018-04-18T01:22:04.221Z,97.03
2018-04-18T01:23:04.274Z,96.74
2018-04-18T01:24:04.275Z,96.74
2018-04-18T01:25:04.133Z,97.03
2018-04-18T01:26:04.131Z,96.40
2018-04-18T01:27:04.097Z,96.06
2018-04-18T01:28:04.126Z,96.31
2018-04-18T01:29:04.085Z,96.69
2018-04-18T01:30:03.981Z,96.25
2018-04-18T01:31:03.988Z,96.35
2018-04-18T01:32:04.219Z,96.50
2018-04-18T01:33:03.986Z,96.79
2018-04-18T01:34:04.445Z,96.40
2018-04-18T01:35:03.848Z,96.79
2018-04-18T01:36:03.862Z,96.79
2018-04-18T01:37:03.825Z,96.79
2018-04-18T01:38:03.909Z,96.40
2018-04-18T01:39:03.855Z,96.50
2018-04-18T01:40:03.763Z,96.98
2018-04-18T01:41:04.297Z,96.89
2018-04-18T01:42:03.931Z,96.69
2018-04-18T01:45:03.707Z,96.31
2018-04-18T01:46:03.606Z,96.79
2018-04-18T01:47:03.599Z,96.11
2018-04-18T01:48:04.077Z,96.40
2018-04-18T01:49:03.600Z,96.11
2018-04-18T01:50:03.609Z,96.11
2018-04-18T01:51:04.065Z,96.31
2018-04-18T01:52:03.943Z,96.31
2018-04-18T01:53:03.483Z,96.21
2018-04-18T01:54:03.411Z,95.72
2018-04-18T01:55:03.371Z,95.57
2018-04-18T01:56:03.418Z,95.09
2018-04-18T01:57:03.881Z,95.67
2018-04-18T01:58:03.311Z,95.00
2018-04-18T01:59:03.281Z,94.80
2018-04-18T02:00:03.258Z,94.90
2018-04-18T02:01:03.292Z,95.67
2018-04-18T02:02:03.734Z,95.19
2018-04-18T02:03:03.182Z,95.48
2018-04-18T02:04:04.349Z,95.48
2018-04-18T02:05:03.333Z,95.48
2018-04-18T02:06:03.201Z,96.06
2018-04-18T02:07:03.098Z,96.64
2018-04-18T02:08:03.037Z,95.73
2018-04-18T02:09:03.035Z,96.06
2018-04-18T02:10:03.523Z,95.48
2018-04-18T02:11:03.043Z,95.67
2018-04-18T02:12:02.953Z,95.97
2018-04-18T02:13:02.935Z,96.21
2018-04-18T02:14:02.924Z,96.60
2018-04-18T02:15:02.883Z,95.87
2018-04-18T02:16:02.939Z,96.41
2018-04-18T02:17:03.359Z,95.73
2018-04-18T02:18:03.230Z,96.11
2018-04-18T02:19:02.819Z,95.43
2018-04-18T02:20:02.786Z,96.50
2018-04-18T02:21:02.881Z,96.79
2018-04-18T02:22:02.759Z,95.34
2018-04-18T02:23:02.680Z,96.21
2018-04-18T02:24:02.647Z,95.53
2018-04-18T02:25:02.700Z,95.48
2018-04-18T02:26:02.702Z,95.39
2018-04-18T02:27:02.578Z,95.78
2018-04-18T02:28:02.628Z,95.48
2018-04-18T02:29:02.545Z,95.19
2018-04-18T02:30:02.552Z,95.10
2018-04-18T02:31:03.017Z,95.29
2018-04-18T02:32:03.038Z,94.90
2018-04-18T02:33:02.968Z,95.39
2018-04-18T02:34:02.440Z,95.29
2018-04-18T02:35:02.405Z,94.61
2018-04-18T02:36:02.368Z,93.45
2018-04-18T02:37:02.450Z,93.64
2018-04-18T02:38:02.290Z,94.61
2018-04-18T02:39:02.821Z,94.71
2018-04-18T02:40:02.251Z,94.13
2018-04-18T02:41:02.769Z,94.03
2018-04-18T02:42:02.344Z,94.18
2018-04-18T02:43:02.711Z,94.42
2018-04-18T02:44:02.704Z,95.15
2018-04-18T02:45:02.770Z,94.23
2018-04-18T02:46:02.098Z,93.93
2018-04-18T02:47:02.181Z,93.16
2018-04-18T02:48:02.090Z,94.32
2018-04-18T02:49:02.049Z,94.27
2018-04-18T02:50:01.999Z,94.18
2018-04-18T02:51:02.027Z,94.66
2018-04-18T02:52:02.658Z,94.66
2018-04-18T02:53:01.931Z,94.81
2018-04-18T02:54:01.901Z,94.81
2018-04-18T02:55:01.880Z,94.81
2018-04-18T02:56:02.372Z,94.90
2018-04-18T02:57:01.907Z,94.51
2018-04-18T02:58:01.817Z,95.00
2018-04-18T02:59:01.823Z,94.81
2018-04-18T03:00:01.727Z,93.98
2018-04-18T03:01:01.742Z,94.90
2018-04-18T03:02:01.908Z,94.32
2018-04-18T03:03:01.734Z,94.23
2018-04-18T03:04:01.674Z,94.81
2018-04-18T03:05:01.611Z,94.71
2018-04-18T03:06:01.605Z,94.81
2018-04-18T03:07:01.672Z,94.71
2018-04-18T03:08:01.674Z,95.00
2018-04-18T03:09:01.516Z,95.00
2018-04-18T03:10:02.134Z,94.71
2018-04-18T03:11:01.430Z,95.48
2018-04-18T03:12:01.447Z,95.00
2018-04-18T03:13:01.525Z,94.61
2018-04-18T03:14:01.380Z,94.71
2018-04-18T03:15:01.424Z,94.90
2018-04-18T03:16:01.845Z,95.58
2018-04-18T03:17:01.351Z,95.10
2018-04-18T03:18:01.277Z,95.00
2018-04-18T03:19:01.328Z,95.48
2018-04-18T03:20:01.236Z,95.48
2018-04-18T03:21:01.210Z,95.00
2018-04-18T03:22:01.176Z,94.03
2018-04-18T03:23:01.194Z,94.81
2018-04-18T03:24:01.129Z,95.19
2018-04-18T03:25:01.232Z,95.19
2018-04-18T03:26:01.125Z,95.68
2018-04-18T03:27:01.076Z,95.39
2018-04-18T03:28:01.067Z,95.39
2018-04-18T03:29:01.029Z,95.10
2018-04-18T03:30:01.058Z,95.10
2018-04-18T03:31:01.015Z,94.61
2018-04-18T03:32:00.974Z,95.68
2018-04-18T03:33:01.043Z,95.48
2018-04-18T03:34:00.880Z,95.48
2018-04-18T03:35:00.849Z,95.58
2018-04-18T03:36:00.818Z,95.68
2018-04-18T03:37:00.782Z,95.58
2018-04-18T03:38:00.860Z,95.87
2018-04-18T03:39:00.747Z,95.87
2018-04-18T03:40:00.760Z,95.58
2018-04-18T03:41:00.683Z,95.68
2018-04-18T03:42:00.671Z,95.78
2018-04-18T03:43:00.696Z,95.48
2018-04-18T03:44:00.755Z,95.00
2018-04-18T03:45:00.624Z,95.68
2018-04-18T03:46:00.570Z,95.68
2018-04-18T03:47:00.542Z,95.48
2018-04-18T03:48:00.503Z,95.39
2018-04-18T03:49:00.834Z,95.68
2018-04-18T03:50:00.475Z,96.06
2018-04-18T03:51:00.424Z,96.45
2018-04-18T03:52:00.405Z,95.68
2018-04-18T03:53:00.440Z,96.45
2018-04-18T03:54:00.356Z,96.36
2018-04-18T03:55:00.425Z,97.23
2018-04-18T03:56:00.342Z,97.23
2018-04-18T03:57:00.666Z,97.13
2018-04-18T03:58:00.741Z,97.13
2018-04-18T03:59:00.465Z,97.03
2018-04-18T04:00:00.321Z,98.49
2018-04-18T04:01:00.199Z,98.10
2018-04-18T04:02:00.151Z,98.83
2018-04-18T04:03:00.135Z,98.49
2018-04-18T04:04:00.114Z,98.35
2018-04-18T04:05:00.378Z,98.05
2018-04-18T04:06:00.067Z,98.63
2018-04-18T04:07:00.024Z,99.22
2018-04-18T04:08:00.021Z,99.12
2018-04-18T04:08:59.982Z,99.41
2018-04-18T04:10:00.923Z,98.97
2018-04-18T04:11:00.483Z,99.22
2018-04-18T04:12:00.645Z,98.54
2018-04-18T04:13:00.605Z,98.54
2018-04-18T04:14:00.429Z,98.78
2018-04-18T04:15:00.750Z,98.63
2018-04-18T04:16:00.906Z,97.61
2018-04-18T04:17:00.747Z,97.52
2018-04-18T04:18:00.424Z,97.61
2018-04-18T04:18:59.751Z,98.39
2018-04-18T04:19:59.675Z,97.81
2018-04-18T04:20:59.661Z,98.20
2018-04-18T04:21:59.724Z,98.58
2018-04-18T04:22:59.613Z,98.88
2018-04-18T04:23:59.599Z,98.97
2018-04-18T04:24:59.591Z,98.78
2018-04-18T04:25:59.543Z,99.07
2018-04-18T04:26:59.636Z,98.58
2018-04-18T04:27:59.500Z,98.49
2018-04-18T04:28:59.460Z,98.68
2018-04-18T04:29:59.438Z,98.49
2018-04-18T04:30:59.399Z,98.78
2018-04-18T04:31:59.389Z,97.42
2018-04-18T04:32:59.355Z,97.42
2018-04-18T04:33:59.333Z,97.33
2018-04-18T04:34:59.301Z,97.03
2018-04-18T04:35:59.323Z,96.84
2018-04-18T04:36:59.362Z,97.03
2018-04-18T04:37:59.329Z,96.26
2018-04-18T04:38:59.410Z,96.60
2018-04-18T04:39:59.189Z,96.60
2018-04-18T04:40:59.180Z,96.70
2018-04-18T04:41:59.117Z,96.21
2018-04-18T04:42:59.199Z,96.60
2018-04-18T04:43:59.061Z,97.28
2018-04-18T04:44:59.097Z,96.70
2018-04-18T04:45:59.010Z,96.60
2018-04-18T04:46:58.995Z,96.70
2018-04-18T04:47:59.099Z,97.38
2018-04-18T04:48:58.938Z,96.89
2018-04-18T04:49:58.913Z,97.28
2018-04-18T04:50:58.899Z,97.28
2018-04-18T04:51:58.869Z,97.28
2018-04-18T04:52:58.834Z,97.28
2018-04-18T04:53:58.907Z,97.71
2018-04-18T04:54:58.785Z,97.33
2018-04-18T04:55:58.809Z,97.03
2018-04-18T04:56:58.758Z,97.18
2018-04-18T04:57:58.717Z,97.23
2018-04-18T04:58:58.733Z,97.42
2018-04-18T04:59:58.762Z,97.13
2018-04-18T05:00:58.666Z,98.10
2018-04-18T05:01:58.595Z,98.49
2018-04-18T05:02:58.589Z,98.88
2018-04-18T05:03:58.567Z,98.20
2018-04-18T05:04:58.632Z,98.39
2018-04-18T05:05:58.511Z,97.81
2018-04-18T05:06:58.521Z,97.81
2018-04-18T05:07:58.455Z,98.20
2018-04-18T05:08:58.437Z,97.33
2018-04-18T05:09:58.411Z,96.84
2018-04-18T05:10:58.489Z,96.89
2018-04-18T05:11:58.343Z,96.22
2018-04-18T05:12:58.339Z,96.22
2018-04-18T05:13:58.304Z,96.31
2018-04-18T05:14:58.259Z,95.92
2018-04-18T05:15:58.344Z,96.31
2018-04-18T05:16:58.225Z,96.22
2018-04-18T05:17:58.204Z,96.22
2018-04-18T05:18:58.166Z,95.64
2018-04-18T05:19:58.158Z,96.02
2018-04-18T05:20:58.262Z,95.64
2018-04-18T05:21:58.080Z,95.73
2018-04-18T05:22:58.084Z,95.64
2018-04-18T05:23:58.053Z,95.54
2018-04-18T05:24:58.005Z,95.54
2018-04-18T05:25:58.079Z,95.34
2018-04-18T05:26:57.974Z,95.64
2018-04-18T05:27:57.957Z,95.83
2018-04-18T05:28:57.893Z,95.73
2018-04-18T05:29:57.897Z,95.54
2018-04-18T05:30:57.951Z,95.44
2018-04-18T05:31:57.945Z,95.15
2018-04-18T05:32:57.796Z,95.83
2018-04-18T05:33:57.802Z,95.25
2018-04-18T05:34:57.752Z,95.54
2018-04-18T05:35:57.739Z,95.15
2018-04-18T05:36:57.789Z,95.54
2018-04-18T05:37:57.680Z,95.34
2018-04-18T05:38:57.637Z,95.44
2018-04-18T05:39:57.601Z,94.86
2018-04-18T05:40:57.592Z,94.96
2018-04-18T05:41:57.681Z,94.47
2018-04-18T05:42:57.533Z,94.47
2018-04-18T05:43:57.505Z,93.89
2018-04-18T05:44:57.492Z,94.67
2018-04-18T05:45:57.452Z,94.47
2018-04-18T05:46:57.458Z,94.52
2018-04-18T05:47:57.652Z,94.52
2018-04-18T05:48:57.374Z,93.89
2018-04-18T05:49:57.347Z,94.04
2018-04-18T05:50:57.432Z,94.09
2018-04-18T05:51:57.313Z,94.18
2018-04-18T05:52:57.282Z,93.94
2018-04-18T05:53:57.353Z,94.04
2018-04-18T05:54:57.243Z,93.94
2018-04-18T05:55:57.956Z,94.13
2018-04-18T05:56:58.038Z,94.23
2018-04-18T05:57:57.871Z,94.23
2018-04-18T05:58:58.578Z,93.65
2018-04-18T05:59:57.632Z,93.70
2018-04-18T06:00:57.291Z,93.65
2018-04-18T06:01:57.073Z,93.70
2018-04-18T06:02:57.052Z,93.65
2018-04-18T06:03:56.980Z,93.65
2018-04-18T06:04:57.056Z,93.70
2018-04-18T06:05:56.936Z,93.79
2018-04-18T06:06:56.907Z,93.26
2018-04-18T06:07:56.871Z,93.85
2018-04-18T06:08:56.859Z,93.26
2018-04-18T06:09:56.931Z,93.17
2018-04-18T06:10:56.793Z,93.17
2018-04-18T06:11:56.763Z,93.07
2018-04-18T06:12:56.767Z,93.17
2018-04-18T06:13:56.728Z,93.17
2018-04-18T06:14:56.789Z,93.07
2018-04-18T06:15:56.653Z,93.17
2018-04-18T06:16:56.638Z,93.36
2018-04-18T06:17:56.622Z,93.17
2018-04-18T06:18:56.586Z,93.36
2018-04-18T06:19:56.685Z,93.17
2018-04-18T06:20:56.569Z,93.55
2018-04-18T06:21:56.507Z,93.36
2018-04-18T06:22:56.476Z,93.46
2018-04-18T06:23:56.460Z,92.88
2018-04-18T06:24:56.438Z,93.17
2018-04-18T06:25:56.445Z,92.97
2018-04-18T06:26:56.374Z,93.07
2018-04-18T06:27:56.342Z,92.97
2018-04-18T06:28:56.342Z,92.97
2018-04-18T06:29:56.285Z,93.17
2018-04-18T06:30:56.265Z,93.17
2018-04-18T06:31:56.300Z,93.17
2018-04-18T06:32:56.278Z,93.26
2018-04-18T06:33:56.202Z,93.07
2018-04-18T06:34:56.209Z,93.17
2018-04-18T06:35:56.142Z,93.26
2018-04-18T06:36:56.179Z,92.97
2018-04-18T06:37:56.105Z,93.46
2018-04-18T06:38:56.057Z,92.97
2018-04-18T06:39:56.046Z,93.07
2018-04-18T06:40:56.015Z,92.97
2018-04-18T06:41:56.090Z,93.07
2018-04-18T06:42:55.939Z,92.97
2018-04-18T06:43:55.926Z,93.07
2018-04-18T06:44:55.891Z,93.07
2018-04-18T06:45:55.938Z,93.17
2018-04-18T06:46:55.954Z,93.07
2018-04-18T06:47:55.812Z,92.88
2018-04-18T06:48:55.782Z,93.07
2018-04-18T06:49:55.749Z,92.40
2018-04-18T06:50:55.739Z,92.58
2018-04-18T06:51:55.825Z,92.40
2018-04-18T06:52:55.688Z,92.68
2018-04-18T06:53:55.652Z,92.40
2018-04-18T06:54:55.647Z,92.88
2018-04-18T06:55:55.612Z,92.78
2018-04-18T06:56:55.742Z,92.58
2018-04-18T06:57:55.647Z,92.68
2018-04-18T06:58:55.589Z,93.07
2018-04-18T06:59:55.551Z,92.78
2018-04-18T07:00:55.481Z,93.07
2018-04-18T07:01:55.479Z,92.88
2018-04-18T07:02:55.523Z,93.07
2018-04-18T07:03:55.400Z,93.07
2018-04-18T07:04:55.381Z,93.07
2018-04-18T07:05:55.332Z,93.07
2018-04-18T07:06:55.334Z,92.88
2018-04-18T07:07:55.275Z,93.46
2018-04-18T07:08:55.296Z,92.88
2018-04-18T07:09:55.239Z,93.46
2018-04-18T07:10:55.198Z,93.07
2018-04-18T07:11:55.182Z,93.17
2018-04-18T07:12:55.172Z,93.36
2018-04-18T07:13:55.183Z,93.94
2018-04-18T07:14:55.207Z,93.55
2018-04-18T07:15:55.074Z,93.65
2018-04-18T07:16:55.044Z,94.33
2018-04-18T07:17:55.022Z,94.33
2018-04-18T07:18:54.974Z,94.04
2018-04-18T07:19:55.065Z,94.38
2018-04-18T07:20:54.935Z,94.38
2018-04-18T07:21:54.915Z,94.86
2018-04-18T07:22:54.897Z,93.46
2018-04-18T07:23:54.866Z,93.75
2018-04-18T07:24:54.953Z,93.85
2018-04-18T07:25:54.825Z,93.99
2018-04-18T07:26:54.786Z,94.43
2018-04-18T07:27:54.768Z,94.18
2018-04-18T07:28:54.710Z,94.09
2018-04-18T07:29:54.800Z,94.52
2018-04-18T07:30:54.667Z,95.64
2018-04-18T07:31:54.646Z,96.60
2018-04-18T07:32:54.619Z,96.99
2018-04-18T07:33:54.612Z,97.67
2018-04-18T07:34:54.627Z,97.47
2018-04-18T07:35:54.849Z,96.12
2018-04-18T07:36:54.603Z,95.73
2018-04-18T07:37:54.482Z,95.93
2018-04-18T07:38:54.453Z,96.02
2018-04-18T07:39:54.423Z,96.60
2018-04-18T07:40:54.392Z,97.09
2018-04-18T07:41:54.380Z,96.99
2018-04-18T07:42:54.360Z,97.86
2018-04-18T07:43:54.320Z,97.18
2018-04-18T07:44:54.293Z,97.96
2018-04-18T07:45:54.269Z,98.44
2018-04-18T07:46:54.236Z,97.04
2018-04-18T07:47:54.205Z,96.89
2018-04-18T07:48:54.218Z,96.12
2018-04-18T07:49:54.161Z,95.40
2018-04-18T07:50:54.236Z,95.83
2018-04-18T07:51:54.106Z,95.25
2018-04-18T07:52:54.091Z,94.72
2018-04-18T07:53:54.099Z,94.72
2018-04-18T07:54:54.063Z,94.72
2018-04-18T07:55:54.119Z,94.53
2018-04-18T07:56:53.976Z,94.04
2018-04-18T07:57:53.955Z,93.41
2018-04-18T07:58:53.923Z,92.98
2018-04-18T07:59:53.877Z,92.88
2018-04-18T08:00:53.917Z,92.88
2018-04-18T08:01:53.873Z,92.21
2018-04-18T08:02:53.815Z,91.96
2018-04-18T08:03:53.785Z,91.72
2018-04-18T08:04:53.751Z,92.16
2018-04-18T08:05:53.827Z,92.40
2018-04-18T08:06:53.706Z,92.54
2018-04-18T08:07:53.691Z,91.77
2018-04-18T08:08:53.657Z,91.82
2018-04-18T08:09:53.615Z,92.16
2018-04-18T08:10:53.640Z,92.11
2018-04-18T08:11:53.577Z,92.49
2018-04-18T08:12:53.553Z,92.64
2018-04-18T08:13:53.510Z,92.01
2018-04-18T08:14:53.507Z,92.35
2018-04-18T08:15:53.456Z,92.35
2018-04-18T08:16:53.628Z,92.40
2018-04-18T08:17:53.413Z,91.96
2018-04-18T08:18:53.410Z,92.35
2018-04-18T08:19:53.360Z,92.16
2018-04-18T08:20:53.312Z,92.64
2018-04-18T08:21:53.293Z,92.59
2018-04-18T08:22:53.288Z,92.40
2018-04-18T08:23:53.267Z,92.25
2018-04-18T08:24:53.219Z,92.30
2018-04-18T08:25:53.201Z,92.49
2018-04-18T08:26:53.181Z,92.21
2018-04-18T08:27:53.224Z,92.59
2018-04-18T08:28:53.111Z,92.30
2018-04-18T08:29:53.100Z,92.21
2018-04-18T08:30:53.054Z,92.30
2018-04-18T08:31:53.017Z,92.59
2018-04-18T08:32:53.091Z,92.79
2018-04-18T08:33:52.995Z,92.98
2018-04-18T08:34:52.952Z,93.08
2018-04-18T08:35:52.908Z,93.08
2018-04-18T08:36:52.901Z,92.98
2018-04-18T08:37:52.915Z,93.17
2018-04-18T08:38:52.833Z,92.69
2018-04-18T08:39:52.805Z,92.98
2018-04-18T08:40:52.814Z,92.98
2018-04-18T08:41:52.757Z,92.88
2018-04-18T08:42:52.833Z,92.98
2018-04-18T08:43:52.713Z,92.79
2018-04-18T08:44:52.694Z,93.37
2018-04-18T08:45:52.663Z,93.46
2018-04-18T08:46:52.613Z,93.27
2018-04-18T08:47:52.701Z,93.08
2018-04-18T08:48:52.621Z,93.17
2018-04-18T08:49:52.560Z,93.37
2018-04-18T08:50:52.517Z,93.46
2018-04-18T08:51:52.481Z,92.98
2018-04-18T08:52:52.534Z,93.37
2018-04-18T08:53:52.529Z,93.17
2018-04-18T08:54:52.399Z,93.27
2018-04-18T08:55:52.370Z,93.46
2018-04-18T08:56:52.372Z,93.46
2018-04-18T08:57:52.337Z,93.75
2018-04-18T08:58:52.333Z,93.75
2018-04-18T08:59:52.333Z,93.75
2018-04-18T09:00:52.273Z,93.51
2018-04-18T09:01:52.208Z,93.56
2018-04-18T09:02:52.207Z,94.53
2018-04-18T09:03:52.220Z,94.48
2018-04-18T09:04:52.254Z,94.38
2018-04-18T09:05:52.108Z,94.04
2018-04-18T09:06:52.097Z,94.14
2018-04-18T09:07:52.043Z,94.04
2018-04-18T09:08:52.031Z,94.09
2018-04-18T09:09:52.098Z,94.48
2018-04-18T09:10:51.982Z,94.48
2018-04-18T09:11:51.941Z,94.29
2018-04-18T09:12:51.945Z,94.33
2018-04-18T09:13:51.939Z,94.09
2018-04-18T09:14:51.963Z,93.99
2018-04-18T09:15:51.849Z,93.80
2018-04-18T09:16:51.796Z,94.29
2018-04-18T09:17:51.774Z,94.38
2018-04-18T09:18:51.749Z,94.09
2018-04-18T09:19:51.821Z,94.09
2018-04-18T09:20:51.685Z,94.09
2018-04-18T09:21:51.716Z,95.15
2018-04-18T09:22:51.652Z,95.35
2018-04-18T09:23:51.627Z,95.06
2018-04-18T09:24:51.690Z,95.45
2018-04-18T09:25:51.609Z,95.25
2018-04-18T09:26:51.526Z,94.96
2018-04-18T09:27:51.512Z,95.54
2018-04-18T09:28:51.465Z,95.15
2018-04-18T09:29:51.463Z,94.96
2018-04-18T09:30:51.468Z,95.25
2018-04-18T09:31:51.423Z,95.25
2018-04-18T09:32:51.356Z,95.45
2018-04-18T09:33:51.337Z,95.45
2018-04-18T09:34:51.335Z,95.93
2018-04-18T09:35:51.319Z,96.22
2018-04-18T09:36:51.284Z,96.22
2018-04-18T09:37:51.228Z,97.09
2018-04-18T09:38:51.197Z,97.57
2018-04-18T09:39:51.167Z,97.28
2018-04-18T09:40:51.159Z,97.28
2018-04-18T09:41:51.123Z,97.09
2018-04-18T09:42:51.105Z,97.77
2018-04-18T09:43:51.094Z,97.47
2018-04-18T09:44:51.063Z,97.67
2018-04-18T09:45:51.068Z,97.86
2018-04-18T09:46:51.108Z,97.77
2018-04-18T09:47:50.959Z,98.44
2018-04-18T09:48:50.932Z,98.25
2018-04-18T09:49:50.957Z,98.83
2018-04-18T09:50:50.889Z,98.93
2018-04-18T09:51:50.904Z,98.54
2018-04-18T09:52:50.824Z,99.60
2018-04-18T09:53:50.819Z,98.83
2018-04-18T09:54:50.781Z,99.31
2018-04-18T09:55:50.741Z,99.07
2018-04-18T09:56:50.829Z,96.70
2018-04-18T09:57:50.694Z,97.67
2018-04-18T09:58:50.657Z,99.26
2018-04-18T09:59:50.650Z,99.16
2018-04-18T10:00:50.602Z,99.50
2018-04-18T10:01:50.712Z,98.25
2018-04-18T10:02:50.656Z,98.54
2018-04-18T10:03:50.521Z,98.78
2018-04-18T10:04:50.493Z,99.26
2018-04-18T10:05:50.468Z,98.10
2018-04-18T10:06:50.441Z,99.50
2018-04-18T10:07:50.411Z,99.99
2018-04-18T10:08:50.378Z,99.84
2018-04-18T10:09:50.412Z,99.89
2018-04-18T10:10:50.353Z,99.16
2018-04-18T10:11:50.298Z,99.36
2018-04-18T10:12:50.346Z,98.15
2018-04-18T10:13:50.270Z,98.39
2018-04-18T10:14:50.304Z,99.07
2018-04-18T10:15:50.194Z,98.68
2018-04-18T10:16:50.164Z,99.99
2018-04-18T10:17:50.520Z,99.26
2018-04-18T10:18:50.225Z,99.26
2018-04-18T10:19:50.103Z,99.36
2018-04-18T10:20:50.080Z,99.99
2018-04-18T10:21:50.019Z,98.05
2018-04-18T10:22:50.023Z,98.30
2018-04-18T10:23:50.025Z,98.30
2018-04-18T10:24:49.949Z,98.39
2018-04-18T10:25:49.909Z,99.16
2018-04-18T10:26:49.980Z,99.16
2018-04-18T10:27:49.878Z,98.78
2018-04-18T10:28:49.963Z,98.88
2018-04-18T10:29:49.800Z,98.20
2018-04-18T10:30:49.788Z,98.88
2018-04-18T10:31:49.756Z,99.36
2018-04-18T10:32:49.722Z,98.78
2018-04-18T10:33:49.824Z,98.97
2018-04-18T10:34:49.667Z,98.68
2018-04-18T10:35:49.651Z,98.68
2018-04-18T10:36:49.644Z,98.58
2018-04-18T10:37:49.646Z,98.39
2018-04-18T10:38:49.561Z,98.10
2018-04-18T10:39:49.637Z,98.20
2018-04-18T10:40:49.515Z,99.07
2018-04-18T10:41:49.473Z,98.10
2018-04-18T10:42:49.449Z,98.10
2018-04-18T10:43:49.417Z,99.94
2018-04-18T10:44:49.385Z,99.45
2018-04-18T10:45:49.395Z,98.88
2018-04-18T10:46:49.333Z,98.68
2018-04-18T10:47:49.328Z,98.83
2018-04-18T10:48:49.299Z,98.88
2018-04-18T10:49:49.257Z,98.58
2018-04-18T10:50:49.240Z,98.88
2018-04-18T10:51:49.190Z,98.54
2018-04-18T10:52:49.173Z,97.86
2018-04-18T10:53:49.161Z,97.38
2018-04-18T10:54:49.122Z,96.94
2018-04-18T10:55:49.220Z,97.86
2018-04-18T10:56:49.112Z,98.83
2018-04-18T10:57:49.029Z,99.79
2018-04-18T10:58:49.090Z,99.99
2018-04-18T10:59:48.984Z,99.99
2018-04-18T11:00:49.065Z,99.99
2018-04-18T11:01:48.935Z,99.99
2018-04-18T11:02:48.909Z,98.25
2018-04-18T11:03:48.876Z,99.26
2018-04-18T11:04:48.846Z,98.92
2018-04-18T11:05:49.052Z,98.30
2018-04-18T11:06:48.795Z,99.36
2018-04-18T11:07:48.772Z,99.21
2018-04-18T11:08:48.736Z,99.99
2018-04-18T11:09:48.702Z,99.99
2018-04-18T11:10:48.767Z,99.99
2018-04-18T11:11:48.707Z,99.99
2018-04-18T11:12:48.656Z,99.99
2018-04-18T11:13:48.599Z,99.99
2018-04-18T11:14:48.621Z,99.99
2018-04-18T11:15:48.532Z,99.99
2018-04-18T11:16:48.611Z,99.99
2018-04-18T11:17:48.628Z,99.99
2018-04-18T11:18:48.462Z,99.99
2018-04-18T11:19:48.586Z,99.99
2018-04-18T11:20:48.406Z,99.99
2018-04-18T11:21:48.402Z,99.99
2018-04-18T11:22:48.394Z,98.83
2018-04-18T11:23:48.332Z,99.31
2018-04-18T11:24:48.314Z,98.00
2018-04-18T11:25:48.278Z,99.36
2018-04-18T11:26:48.403Z,99.31
2018-04-18T11:27:48.251Z,99.69
2018-04-18T11:28:48.191Z,99.99
2018-04-18T11:29:48.146Z,99.99
2018-04-18T11:30:48.166Z,99.99
2018-04-18T11:31:48.166Z,99.99
2018-04-18T11:32:48.196Z,99.99
2018-04-18T11:33:48.065Z,99.99
2018-04-18T11:34:48.029Z,99.99
2018-04-18T11:35:47.978Z,99.99
2018-04-18T11:36:47.953Z,99.99
2018-04-18T11:37:48.043Z,99.99
2018-04-18T11:38:47.908Z,99.79
2018-04-18T11:39:47.942Z,98.54
2018-04-18T11:40:47.923Z,98.54
2018-04-18T11:41:47.836Z,99.60
2018-04-18T11:42:47.814Z,99.40
2018-04-18T11:43:47.805Z,99.40
2018-04-18T11:44:47.746Z,99.40
2018-04-18T11:45:47.737Z,99.88
2018-04-18T11:46:47.724Z,99.40
2018-04-18T11:47:47.653Z,99.99
2018-04-18T11:48:47.646Z,99.99
2018-04-18T11:49:47.619Z,99.99
2018-04-18T11:50:47.633Z,99.99
2018-04-18T11:51:47.545Z,99.99
2018-04-18T11:52:47.501Z,99.99
2018-04-18T11:53:47.579Z,99.99
2018-04-18T11:54:47.609Z,99.99
2018-04-18T11:55:47.432Z,99.99
2018-04-18T11:56:47.410Z,99.99
2018-04-18T11:57:47.493Z,99.99
2018-04-18T11:58:47.352Z,99.99
2018-04-18T11:59:47.313Z,99.99
2018-04-18T12:00:47.282Z,99.99
2018-04-18T12:01:47.279Z,99.99
2018-04-18T12:02:47.263Z,99.99
2018-04-18T12:03:47.188Z,99.99
2018-04-18T12:04:47.241Z,99.99
2018-04-18T12:05:47.164Z,99.99
2018-04-18T12:06:47.130Z,99.99
2018-04-18T12:07:47.103Z,99.99
2018-04-18T12:08:47.064Z,99.99
2018-04-18T12:09:47.101Z,99.99
2018-04-18T12:10:47.005Z,99.99
2018-04-18T12:11:46.976Z,99.99
2018-04-18T12:12:46.980Z,99.99
2018-04-18T12:13:46.937Z,99.99
2018-04-18T12:14:47.036Z,99.99
2018-04-18T12:15:46.892Z,99.99
2018-04-18T12:16:46.846Z,99.99
2018-04-18T12:17:46.838Z,99.99
2018-04-18T12:18:46.819Z,99.99
2018-04-18T12:19:46.869Z,99.32
2018-04-18T12:20:46.783Z,98.54
2018-04-18T12:21:46.714Z,98.49
2018-04-18T12:22:46.691Z,98.00
2018-04-18T12:23:46.665Z,98.34
2018-04-18T12:24:46.647Z,98.10
2018-04-18T12:25:46.666Z,98.00
2018-04-18T12:26:46.769Z,98.00
2018-04-18T12:27:46.576Z,98.73
2018-04-18T12:28:46.528Z,97.50
2018-04-18T12:29:46.524Z,94.87
2018-04-18T12:30:46.594Z,95.11
2018-04-18T12:31:46.476Z,96.62
2018-04-18T12:32:46.438Z,94.96
2018-04-18T12:33:46.478Z,93.69
2018-04-18T12:34:46.388Z,89.19
2018-04-18T12:35:46.343Z,91.09
2018-04-18T12:36:46.428Z,91.33
2018-04-18T12:37:46.350Z,89.81
2018-04-18T12:38:46.298Z,90.70
2018-04-18T12:39:46.260Z,94.53
2018-04-18T12:40:46.289Z,94.63
2018-04-18T12:41:46.241Z,96.44
2018-04-18T12:42:46.198Z,95.85
2018-04-18T12:43:46.187Z,96.00
2018-04-18T12:44:46.183Z,94.97
2018-04-18T12:45:46.151Z,96.09
2018-04-18T12:46:46.220Z,95.02
2018-04-18T12:47:46.078Z,95.85
2018-04-18T12:48:46.150Z,96.69
2018-04-18T12:49:46.110Z,97.51
2018-04-18T12:50:46.793Z,98.19
2018-04-18T12:51:46.229Z,97.80
2018-04-18T12:52:45.975Z,97.17
2018-04-18T12:53:45.941Z,98.68